Terminal Aerodrome Forecast
Issued by NWS

Home | Current Version | Previous Version | Text Only | Print | Product List | Glossary On
Versions: 1 2 3 4 5 6 7 8 9 10 11 12 13 14 15 16 17
000
FTUS42 KTBW 271100
TAFLAL
TAF
KLAL 271139Z 2712/2812 VRB05KT P6SM SCT070
     FM271400 05008KT P6SM SCT045 SCT120
     FM280000 05004KT P6SM FEW050=

USA.gov is the U.S. government's official web portal to all federal, state and local government web resources and services.